Terminal Aerodrome Forecast
Issued by NWS

Home | Current Version | Previous Version | Text Only | Print | Product List | Glossary On
Versions: 1 2 3 4 5 6 7 8 9 10 11 12 13 14 15 16 17 18 19 20
000
FTUS46 KSGX 201723
TAFSNA
TAF
KSNA 201723Z 2018/2118 17006KT P6SM SCT025 BKN040
     FM210500 VRB04KT P6SM VCSH BKN015
     FM211700 VRB06KT P6SM SCT015 BKN040=

USA.gov is the U.S. government's official web portal to all federal, state and local government web resources and services.